createdAt,value
2023-05-18T00:04:27.072Z,5.28
2023-05-18T00:09:32.778Z,7.75
2023-05-18T00:14:40.696Z,6.18
2023-05-18T00:19:47.025Z,5.82
2023-05-18T00:24:52.279Z,7.53
2023-05-18T00:30:00.146Z,7.10
2023-05-18T00:35:05.264Z,8.43
2023-05-18T00:40:12.341Z,6.32
2023-05-18T00:45:20.199Z,5.50
2023-05-18T00:50:26.133Z,7.28
2023-05-18T00:55:31.598Z,8.65
2023-05-18T01:00:40.191Z,9.02
2023-05-18T01:05:45.559Z,7.75
2023-05-18T01:10:57.779Z,6.85
2023-05-18T01:16:06.482Z,5.55
2023-05-18T01:21:21.985Z,5.32
2023-05-18T01:26:33.347Z,5.70
2023-05-18T01:31:39.141Z,6.97
2023-05-18T01:36:44.232Z,6.07
2023-05-18T01:41:56.389Z,6.72
2023-05-18T01:47:10.460Z,6.53
2023-05-18T01:52:20.206Z,6.07
2023-05-18T01:57:31.643Z,7.13
2023-05-18T02:02:37.155Z,5.88
2023-05-18T02:07:44.358Z,6.07
2023-05-18T02:12:53.288Z,5.57
2023-05-18T02:17:58.656Z,5.80
2023-05-18T02:23:03.880Z,7.82
2023-05-18T02:28:11.594Z,5.45
2023-05-18T02:33:18.086Z,6.63
2023-05-18T02:38:23.437Z,6.30
2023-05-18T02:43:31.331Z,8.68
2023-05-18T02:48:36.781Z,6.95
2023-05-18T02:53:44.472Z,8.35
2023-05-18T02:58:58.139Z,7.30
2023-05-18T03:04:03.768Z,8.23
2023-05-18T03:09:09.031Z,6.78
2023-05-18T03:14:16.917Z,11.65
2023-05-18T03:19:22.183Z,8.63
2023-05-18T03:24:30.769Z,7.22
2023-05-18T03:29:38.595Z,5.28
2023-05-18T03:34:45.093Z,9.73
2023-05-18T03:39:50.268Z,5.20
2023-05-18T03:44:58.064Z,5.50
2023-05-18T03:50:03.197Z,8.13
2023-05-18T03:55:09.369Z,5.97
2023-05-18T04:00:18.149Z,5.53
2023-05-18T04:05:23.428Z,6.68
2023-05-18T04:10:28.742Z,6.90
2023-05-18T04:15:36.954Z,5.32
2023-05-18T04:20:42.694Z,8.95
2023-05-18T04:25:47.931Z,5.68
2023-05-18T04:30:55.832Z,6.70
2023-05-18T04:36:05.233Z,7.03
2023-05-18T04:41:10.536Z,7.20
2023-05-18T04:46:18.389Z,7.88
2023-05-18T04:51:24.399Z,6.68
2023-05-18T04:56:29.882Z,5.95
2023-05-18T05:01:37.929Z,6.13
2023-05-18T05:06:43.246Z,7.55
2023-05-18T05:11:48.347Z,6.60
2023-05-18T05:16:56.224Z,5.95
2023-05-18T05:22:01.696Z,6.35
2023-05-18T05:27:06.956Z,7.18
2023-05-18T05:32:15.219Z,6.45
2023-05-18T05:37:20.791Z,7.35
2023-05-18T05:42:26.033Z,8.52
2023-05-18T05:47:33.889Z,8.45
2023-05-18T05:52:42.412Z,7.90
2023-05-18T05:57:47.577Z,6.90
2023-05-18T06:02:55.512Z,6.30
2023-05-18T06:08:03.071Z,4.85
2023-05-18T06:13:08.145Z,5.20
2023-05-18T06:18:16.014Z,6.30
2023-05-18T06:23:23.983Z,5.85
2023-05-18T06:28:29.193Z,5.00
2023-05-18T06:33:38.743Z,5.55
2023-05-18T06:38:43.820Z,4.28
2023-05-18T06:43:49.405Z,4.70
2023-05-18T06:48:57.196Z,4.35
2023-05-18T06:54:02.831Z,5.10
2023-05-18T06:59:10.797Z,3.42
2023-05-18T07:04:19.642Z,5.18
2023-05-18T07:09:24.855Z,5.32
2023-05-18T07:14:30.055Z,3.95
2023-05-18T07:19:38.469Z,4.47
2023-05-18T07:24:43.592Z,3.65
2023-05-18T07:29:48.796Z,3.33
2023-05-18T07:34:56.682Z,3.47
2023-05-18T07:40:01.950Z,2.60
2023-05-18T07:45:07.846Z,2.97
2023-05-18T07:50:16.189Z,3.00
2023-05-18T07:55:21.490Z,2.55
2023-05-18T08:00:26.868Z,9.75
2023-05-18T08:05:34.681Z,2.80
2023-05-18T08:10:39.883Z,4.20
2023-05-18T08:15:46.323Z,4.28
2023-05-18T08:20:56.931Z,3.43
2023-05-18T08:26:04.094Z,3.97
2023-05-18T08:31:09.526Z,3.28
2023-05-18T08:36:17.531Z,2.67
2023-05-18T08:41:24.438Z,2.85
2023-05-18T08:46:33.592Z,3.08
2023-05-18T08:51:41.385Z,2.65
2023-05-18T08:56:47.550Z,3.47
2023-05-18T09:01:52.945Z,3.40
2023-05-18T09:07:03.328Z,4.00
2023-05-18T09:12:09.836Z,3.30
2023-05-18T09:17:15.103Z,3.60
2023-05-18T09:22:23.232Z,3.38
2023-05-18T09:27:28.487Z,3.22
2023-05-18T09:32:38.664Z,4.22
2023-05-18T09:37:47.485Z,3.47
2023-05-18T09:42:52.884Z,4.30
2023-05-18T09:48:00.963Z,3.63
2023-05-18T09:53:10.747Z,4.53
2023-05-18T09:58:16.071Z,8.73
2023-05-18T10:03:22.547Z,4.88
2023-05-18T10:08:30.596Z,4.00
2023-05-18T10:13:36.997Z,5.30
2023-05-18T10:18:45.620Z,4.95
2023-05-18T10:23:54.284Z,4.67
2023-05-18T10:29:00.345Z,4.87
2023-05-18T10:34:06.148Z,6.28
2023-05-18T10:39:15.071Z,5.15
2023-05-18T10:44:20.430Z,5.28
2023-05-18T10:49:26.447Z,4.85
2023-05-18T10:54:34.382Z,4.43
2023-05-18T10:59:42.865Z,4.55
2023-05-18T11:04:50.672Z,5.40
2023-05-18T11:10:00.377Z,4.90
2023-05-18T11:15:05.707Z,4.05
2023-05-18T11:20:20.752Z,4.93
2023-05-18T11:25:46.018Z,4.05
2023-05-18T11:30:53.215Z,3.55
2023-05-18T11:36:07.694Z,11.48
2023-05-18T11:41:30.355Z,17.23
2023-05-18T11:46:37.458Z,14.65
2023-05-18T11:52:01.546Z,4.80
2023-05-18T11:57:11.042Z,4.05
2023-05-18T12:02:21.814Z,5.07
2023-05-18T12:07:28.556Z,6.63
2023-05-18T12:12:36.879Z,5.30
2023-05-18T12:17:43.095Z,6.30
2023-05-18T12:22:50.553Z,3.95
2023-05-18T12:27:58.316Z,4.20
2023-05-18T12:33:07.364Z,3.40
2023-05-18T12:38:12.656Z,3.63
2023-05-18T12:43:20.627Z,3.50
2023-05-18T12:48:26.916Z,3.72
2023-05-18T12:53:44.611Z,2.85
2023-05-18T12:59:08.482Z,3.17
2023-05-18T13:04:15.271Z,3.50
2023-05-18T13:09:20.983Z,9.68
2023-05-18T13:14:30.780Z,2.70
2023-05-18T13:19:38.005Z,2.90
2023-05-18T13:24:43.966Z,2.60
2023-05-18T13:29:51.671Z,3.03
2023-05-18T13:34:56.809Z,2.78
2023-05-18T13:40:02.176Z,2.80
2023-05-18T13:45:13.200Z,2.83
2023-05-18T13:50:19.902Z,4.70
2023-05-18T13:55:25.379Z,2.83
2023-05-18T14:00:34.085Z,2.55
2023-05-18T14:05:39.928Z,3.00
2023-05-18T14:10:45.435Z,2.95
2023-05-18T14:15:53.361Z,3.08
2023-05-18T14:21:02.444Z,5.55
2023-05-18T14:26:07.611Z,3.80
2023-05-18T14:31:15.567Z,3.05
2023-05-18T14:36:22.182Z,3.10
2023-05-18T14:41:27.574Z,3.25
2023-05-18T14:46:35.457Z,3.30
2023-05-18T14:51:41.022Z,2.53
2023-05-18T14:56:46.757Z,3.15
2023-05-18T15:01:54.598Z,2.60
2023-05-18T15:06:59.907Z,2.83
2023-05-18T15:12:05.115Z,3.03
2023-05-18T15:17:13.913Z,2.97
2023-05-18T15:22:19.140Z,3.90
2023-05-18T15:27:24.362Z,3.25
2023-05-18T15:32:32.300Z,3.90
2023-05-18T15:37:37.654Z,24.15
2023-05-18T15:42:42.814Z,20.48
2023-05-18T15:47:50.716Z,4.03
2023-05-18T15:52:56.066Z,3.58
2023-05-18T15:58:01.209Z,8.80
2023-05-18T16:03:09.242Z,6.88
2023-05-18T16:08:15.997Z,4.07
2023-05-18T16:13:24.000Z,7.07
2023-05-18T16:18:31.844Z,10.88
2023-05-18T16:23:40.718Z,3.92
2023-05-18T16:28:46.785Z,3.47
2023-05-18T16:33:54.637Z,4.45
2023-05-18T16:39:00.122Z,5.75
2023-05-18T16:44:05.557Z,4.60
2023-05-18T16:49:13.613Z,3.47
2023-05-18T16:54:18.985Z,3.47
2023-05-18T16:59:24.799Z,4.05
2023-05-18T17:04:32.789Z,2.65
2023-05-18T17:09:40.269Z,3.88
2023-05-18T17:14:45.475Z,4.70
2023-05-18T17:19:53.251Z,4.03
2023-05-18T17:24:58.902Z,3.72
2023-05-18T17:30:04.039Z,4.43
2023-05-18T17:35:14.309Z,4.80
2023-05-18T17:40:19.813Z,5.10
2023-05-18T17:45:24.988Z,3.35
2023-05-18T17:50:33.160Z,4.00
2023-05-18T17:55:38.607Z,4.25
2023-05-18T18:00:45.738Z,3.65
2023-05-18T18:05:53.545Z,8.27
2023-05-18T18:10:58.773Z,7.35
2023-05-18T18:16:04.041Z,7.35
2023-05-18T18:21:12.086Z,7.78
2023-05-18T18:26:17.409Z,7.57
2023-05-18T18:31:22.629Z,7.00
2023-05-18T18:36:30.580Z,6.35
2023-05-18T18:41:35.860Z,5.35
2023-05-18T18:46:41.112Z,5.93
2023-05-18T18:51:49.261Z,8.52
2023-05-18T18:56:54.920Z,6.78
2023-05-18T19:02:00.185Z,4.85
2023-05-18T19:07:08.335Z,6.30
2023-05-18T19:12:13.682Z,7.57
2023-05-18T19:17:19.030Z,7.55
2023-05-18T19:22:26.782Z,11.35
2023-05-18T19:27:32.114Z,8.25
2023-05-18T19:32:37.251Z,8.18
2023-05-18T19:37:45.053Z,7.88
2023-05-18T19:42:50.539Z,7.78
2023-05-18T19:47:56.100Z,7.82
2023-05-18T19:53:03.932Z,9.05
2023-05-18T19:58:09.117Z,7.85
2023-05-18T20:03:14.736Z,8.88
2023-05-18T20:08:22.654Z,8.00
2023-05-18T20:13:27.832Z,10.52
2023-05-18T20:18:35.466Z,8.13
2023-05-18T20:23:43.378Z,10.15
2023-05-18T20:28:48.483Z,6.90
2023-05-18T20:33:57.264Z,7.78
2023-05-18T20:39:05.718Z,9.60
2023-05-18T20:44:11.792Z,9.13
2023-05-18T20:49:16.917Z,9.18
2023-05-18T20:54:24.802Z,9.18
2023-05-18T20:59:30.070Z,10.68
2023-05-18T21:04:35.282Z,19.02
2023-05-18T21:09:42.988Z,11.50
2023-05-18T21:14:48.267Z,13.57
2023-05-18T21:19:53.656Z,12.40
2023-05-18T21:25:01.471Z,14.00
2023-05-18T21:30:07.087Z,12.80
2023-05-18T21:35:12.704Z,13.77
2023-05-18T21:40:20.527Z,13.90
2023-05-18T21:45:25.901Z,14.30
2023-05-18T21:50:35.386Z,14.00
2023-05-18T21:55:43.473Z,19.55
2023-05-18T22:00:48.688Z,14.45
2023-05-18T22:05:53.887Z,15.45
2023-05-18T22:11:01.771Z,16.13
2023-05-18T22:16:07.184Z,16.77
2023-05-18T22:21:12.617Z,14.05
2023-05-18T22:26:20.465Z,16.35
2023-05-18T22:31:25.931Z,15.05
2023-05-18T22:36:31.102Z,20.60
2023-05-18T22:41:38.792Z,17.13
2023-05-18T22:46:43.964Z,18.63
2023-05-18T22:51:50.251Z,13.90
2023-05-18T22:56:59.707Z,15.27
2023-05-18T23:02:04.966Z,16.65
2023-05-18T23:07:11.819Z,21.10
2023-05-18T23:12:20.657Z,16.80
2023-05-18T23:17:26.944Z,16.38
2023-05-18T23:22:32.345Z,16.15
2023-05-18T23:27:40.186Z,17.48
2023-05-18T23:32:47.192Z,16.73
2023-05-18T23:37:53.915Z,16.88
2023-05-18T23:43:02.540Z,16.40
2023-05-18T23:48:08.862Z,18.83
2023-05-18T23:53:15.611Z,18.75
2023-05-18T23:58:24.756Z,18.95
